createdAt,value
2022-08-05T00:01:36.125Z,3.28
2022-08-05T00:04:18.809Z,3.47
2022-08-05T00:06:51.746Z,3.50
2022-08-05T00:09:21.970Z,3.60
2022-08-05T00:11:56.159Z,3.17
2022-08-05T00:14:31.570Z,2.95
2022-08-05T00:17:02.997Z,3.15
2022-08-05T00:19:45.661Z,3.20
2022-08-05T00:22:23.108Z,3.08
2022-08-05T00:24:55.163Z,3.28
2022-08-05T00:27:35.771Z,3.17
2022-08-05T00:30:11.257Z,3.33
2022-08-05T00:32:41.687Z,2.90
2022-08-05T00:35:12.520Z,3.05
2022-08-05T00:37:52.514Z,3.17
2022-08-05T00:40:27.004Z,2.53
2022-08-05T00:43:00.707Z,2.92
2022-08-05T00:45:38.426Z,3.00
2022-08-05T00:48:15.115Z,2.72
2022-08-05T00:50:46.698Z,2.78
2022-08-05T00:54:00.820Z,2.50
2022-08-05T00:56:10.848Z,2.83
2022-08-05T00:58:42.588Z,3.10
2022-08-05T01:01:15.900Z,3.03
2022-08-05T01:04:13.587Z,2.65
2022-08-05T01:06:48.584Z,2.72
2022-08-05T01:09:19.962Z,2.67
2022-08-05T01:11:51.663Z,2.67
2022-08-05T01:14:27.879Z,3.30
2022-08-05T01:17:21.709Z,2.78
2022-08-05T01:20:01.790Z,2.33
2022-08-05T01:22:42.419Z,2.38
2022-08-05T01:25:22.834Z,2.35
2022-08-05T01:28:11.321Z,3.00
2022-08-05T01:30:50.615Z,2.33
2022-08-05T01:33:26.245Z,2.28
2022-08-05T01:35:57.607Z,2.55
2022-08-05T01:38:29.912Z,2.45
2022-08-05T01:41:01.280Z,2.50
2022-08-05T01:43:32.775Z,2.25
2022-08-05T01:46:07.507Z,2.42
2022-08-05T01:48:49.544Z,2.30
2022-08-05T01:51:20.828Z,2.13
2022-08-05T01:53:57.484Z,2.50
2022-08-05T01:58:29.705Z,2.03
2022-08-05T01:59:23.380Z,2.05
2022-08-05T02:01:55.501Z,2.10
2022-08-05T02:04:26.849Z,2.10
2022-08-05T02:06:57.870Z,1.80
2022-08-05T02:09:28.243Z,1.95
2022-08-05T02:12:01.405Z,2.50
2022-08-05T02:14:33.667Z,2.40
2022-08-05T02:18:27.997Z,1.85
2022-08-05T02:20:11.779Z,1.83
2022-08-05T02:22:46.943Z,1.77
2022-08-05T02:25:21.770Z,2.25
2022-08-05T02:27:59.128Z,1.77
2022-08-05T02:30:38.482Z,1.80
2022-08-05T02:33:35.744Z,1.88
2022-08-05T02:36:13.332Z,2.00
2022-08-05T02:38:53.478Z,1.83
2022-08-05T02:41:28.292Z,1.98
2022-08-05T02:44:13.152Z,1.75
2022-08-05T02:46:58.720Z,1.90
2022-08-05T02:49:36.434Z,2.17
2022-08-05T02:52:13.543Z,1.85
2022-08-05T02:54:56.146Z,1.80
2022-08-05T02:58:09.706Z,1.90
2022-08-05T03:00:17.165Z,2.05
2022-08-05T03:02:48.148Z,1.85
2022-08-05T03:05:21.629Z,2.20
2022-08-05T03:08:10.866Z,2.25
2022-08-05T03:11:41.114Z,1.80
2022-08-05T03:13:52.005Z,1.80
2022-08-05T03:16:25.229Z,1.98
2022-08-05T03:18:58.163Z,1.85
2022-08-05T03:21:28.847Z,1.92
2022-08-05T03:23:59.724Z,1.80
2022-08-05T03:26:31.596Z,1.73
2022-08-05T03:29:02.661Z,1.80
2022-08-05T03:31:55.624Z,1.90
2022-08-05T03:34:24.415Z,1.80
2022-08-05T03:36:54.692Z,1.73
2022-08-05T03:39:27.165Z,1.70
2022-08-05T03:41:58.053Z,1.73
2022-08-05T03:44:28.923Z,1.63
2022-08-05T03:46:59.143Z,1.63
2022-08-05T03:49:31.221Z,1.85
2022-08-05T03:52:49.193Z,1.80
2022-08-05T03:58:05.396Z,1.60
2022-08-05T04:00:35.524Z,1.88
2022-08-05T04:03:06.920Z,1.90
2022-08-05T04:05:45.208Z,1.75
2022-08-05T04:08:34.652Z,1.85
2022-08-05T04:11:08.679Z,1.60
2022-08-05T04:13:50.071Z,1.83
2022-08-05T04:16:24.382Z,1.88
2022-08-05T04:18:57.702Z,1.67
2022-08-05T04:22:08.506Z,1.80
2022-08-05T04:24:19.346Z,1.88
2022-08-05T04:26:52.432Z,2.00
2022-08-05T04:29:22.498Z,1.65
2022-08-05T04:31:53.151Z,2.10
2022-08-05T04:34:32.439Z,1.70
2022-08-05T04:37:04.266Z,2.00
2022-08-05T04:39:35.382Z,1.80
2022-08-05T04:42:05.878Z,1.70
2022-08-05T04:44:35.853Z,2.20
2022-08-05T04:47:08.853Z,1.80
2022-08-05T04:50:01.879Z,2.08
2022-08-05T04:52:34.087Z,1.80
2022-08-05T04:55:13.880Z,1.80
2022-08-05T04:57:48.034Z,2.05
2022-08-05T05:00:24.131Z,1.75
2022-08-05T05:02:54.312Z,2.08
2022-08-05T05:05:27.975Z,2.40
2022-08-05T05:08:14.352Z,2.05
2022-08-05T05:10:56.807Z,2.17
2022-08-05T05:13:27.021Z,2.22
2022-08-05T05:16:05.916Z,2.20
2022-08-05T05:18:37.121Z,2.22
2022-08-05T05:21:07.201Z,2.30
2022-08-05T05:23:39.028Z,2.60
2022-08-05T05:26:28.879Z,2.30
2022-08-05T05:29:14.396Z,2.40
2022-08-05T05:31:46.270Z,2.20
2022-08-05T05:34:21.164Z,2.65
2022-08-05T05:36:54.227Z,2.13
2022-08-05T05:39:24.363Z,2.55
2022-08-05T05:42:01.634Z,1.98
2022-08-05T05:44:36.656Z,2.20
2022-08-05T05:47:13.227Z,2.90
2022-08-05T05:49:52.633Z,2.00
2022-08-05T05:52:29.944Z,2.47
2022-08-05T05:55:07.328Z,2.20
2022-08-05T05:57:51.999Z,2.50
2022-08-05T06:00:27.837Z,2.40
2022-08-05T06:03:03.486Z,2.03
2022-08-05T06:05:53.915Z,2.35
2022-08-05T06:08:32.663Z,2.40
2022-08-05T06:11:04.037Z,2.20
2022-08-05T06:13:40.816Z,2.38
2022-08-05T06:16:31.647Z,2.20
2022-08-05T06:19:05.954Z,2.58
2022-08-05T06:21:38.387Z,2.78
2022-08-05T06:24:12.723Z,3.15
2022-08-05T06:26:52.085Z,3.15
2022-08-05T06:29:25.390Z,2.90
2022-08-05T06:32:25.112Z,2.90
2022-08-05T06:34:58.471Z,2.80
2022-08-05T06:37:56.446Z,3.83
2022-08-05T06:40:21.125Z,3.70
2022-08-05T06:42:52.772Z,4.60
2022-08-05T06:45:44.485Z,4.82
2022-08-05T06:48:53.053Z,3.22
2022-08-05T06:51:09.601Z,4.60
2022-08-05T06:53:41.415Z,4.68
2022-08-05T06:56:26.303Z,4.45
2022-08-05T06:58:57.231Z,4.75
2022-08-05T07:01:27.676Z,5.93
2022-08-05T07:04:03.034Z,3.97
2022-08-05T07:06:33.298Z,4.90
2022-08-05T07:09:04.842Z,5.53
2022-08-05T07:11:36.732Z,8.75
2022-08-05T07:14:29.304Z,7.28
2022-08-05T07:18:01.976Z,8.75
2022-08-05T07:22:43.372Z,7.60
2022-08-05T07:25:55.464Z,10.85
2022-08-05T07:28:08.198Z,7.40
2022-08-05T07:30:40.105Z,6.07
2022-08-05T07:33:16.427Z,6.80
2022-08-05T07:36:04.410Z,7.95
2022-08-05T07:38:43.519Z,5.25
2022-08-05T07:42:13.059Z,8.68
2022-08-05T07:44:18.431Z,9.68
2022-08-05T07:46:50.282Z,6.43
2022-08-05T07:49:20.764Z,9.13
2022-08-05T07:51:53.717Z,11.55
2022-08-05T07:54:30.960Z,6.43
2022-08-05T07:57:17.747Z,7.10
2022-08-05T07:59:54.906Z,3.90
2022-08-05T08:02:30.724Z,6.07
2022-08-05T08:07:39.704Z,2.90
2022-08-05T08:10:24.500Z,2.78
2022-08-05T08:12:56.202Z,3.28
2022-08-05T08:16:34.423Z,3.92
2022-08-05T08:18:20.831Z,3.58
2022-08-05T08:21:03.094Z,3.10
2022-08-05T08:24:02.399Z,2.63
2022-08-05T08:26:26.806Z,8.82
2022-08-05T08:31:50.094Z,2.30
2022-08-05T08:34:30.831Z,2.33
2022-08-05T08:37:05.405Z,2.58
2022-08-05T08:39:37.356Z,2.42
2022-08-05T08:42:34.381Z,3.05
2022-08-05T08:45:22.762Z,2.47
2022-08-05T08:48:07.157Z,1.95
2022-08-05T08:51:03.492Z,2.35
2022-08-05T08:53:38.038Z,2.15
2022-08-05T08:56:14.598Z,2.40
2022-08-05T08:58:48.640Z,2.10
2022-08-05T09:01:19.953Z,2.20
2022-08-05T09:03:54.450Z,2.22
2022-08-05T09:06:28.250Z,4.22
2022-08-05T09:09:01.525Z,2.47
2022-08-05T09:11:51.612Z,2.10
2022-08-05T09:14:56.769Z,1.95
2022-08-05T09:17:40.793Z,4.75
2022-08-05T09:20:05.796Z,1.95
2022-08-05T09:23:07.698Z,1.95
2022-08-05T09:26:02.077Z,2.03
2022-08-05T09:28:31.515Z,2.40
2022-08-05T09:31:22.890Z,1.88
2022-08-05T09:33:56.685Z,1.80
2022-08-05T09:36:54.067Z,1.98
2022-08-05T09:39:39.275Z,1.98
2022-08-05T09:42:24.522Z,2.00
2022-08-05T09:46:05.123Z,1.63
2022-08-05T09:48:01.878Z,1.77
2022-08-05T09:50:44.123Z,1.70
2022-08-05T09:53:23.133Z,1.70
2022-08-05T09:56:04.683Z,1.73
2022-08-05T09:58:35.234Z,1.80
2022-08-05T10:01:13.434Z,2.00
2022-08-05T10:04:00.800Z,2.00
2022-08-05T10:06:31.355Z,2.03
2022-08-05T10:09:27.725Z,1.58
2022-08-05T10:12:30.153Z,2.00
2022-08-05T10:15:17.260Z,1.70
2022-08-05T10:18:05.754Z,1.73
2022-08-05T10:20:39.509Z,1.85
2022-08-05T10:23:34.118Z,1.85
2022-08-05T10:26:03.650Z,1.55
2022-08-05T10:28:37.370Z,1.70
2022-08-05T10:32:47.177Z,1.77
2022-08-05T10:33:58.048Z,1.90
2022-08-05T10:36:28.445Z,1.77
2022-08-05T10:39:11.696Z,1.88
2022-08-05T10:42:01.419Z,2.58
2022-08-05T10:44:32.763Z,1.60
2022-08-05T10:47:26.211Z,1.80
2022-08-05T10:50:35.219Z,2.00
2022-08-05T10:53:26.600Z,1.48
2022-08-05T10:56:21.469Z,2.13
2022-08-05T10:58:54.918Z,1.50
2022-08-05T11:01:55.012Z,1.50
2022-08-05T11:04:22.576Z,1.80
2022-08-05T11:07:04.495Z,1.60
2022-08-05T11:09:45.299Z,2.28
2022-08-05T11:12:34.863Z,2.00
2022-08-05T11:15:19.237Z,1.60
2022-08-05T11:17:57.194Z,1.70
2022-08-05T11:20:39.228Z,1.80
2022-08-05T11:23:49.905Z,1.67
2022-08-05T11:26:28.710Z,2.13
2022-08-05T11:29:12.169Z,1.60
2022-08-05T11:31:57.291Z,1.80
2022-08-05T11:34:37.850Z,1.80
2022-08-05T11:38:45.823Z,1.75
2022-08-05T11:40:02.926Z,2.10
2022-08-05T11:42:40.198Z,1.60
2022-08-05T11:45:23.247Z,1.50
2022-08-05T11:48:00.872Z,4.65
2022-08-05T11:50:37.497Z,1.95
2022-08-05T11:53:09.966Z,1.58
2022-08-05T11:55:52.733Z,1.80
2022-08-05T11:58:30.600Z,1.60
2022-08-05T12:01:08.496Z,1.70
2022-08-05T12:03:55.546Z,1.60
2022-08-05T12:08:10.499Z,1.80
2022-08-05T12:10:43.301Z,1.60
2022-08-05T12:13:28.355Z,1.55
2022-08-05T12:16:14.484Z,1.60
2022-08-05T12:18:49.114Z,1.90
2022-08-05T12:21:47.099Z,1.70
2022-08-05T12:24:21.685Z,2.20
2022-08-05T12:26:55.223Z,1.90
2022-08-05T12:29:27.689Z,3.78
2022-08-05T12:32:01.712Z,1.98
2022-08-05T12:34:37.043Z,1.77
2022-08-05T12:37:17.343Z,1.85
2022-08-05T12:39:53.972Z,1.80
2022-08-05T12:42:29.137Z,2.10
2022-08-05T12:45:09.735Z,1.90
2022-08-05T12:48:01.043Z,3.40
2022-08-05T12:50:32.123Z,1.63
2022-08-05T12:53:02.980Z,1.80
2022-08-05T12:55:33.242Z,1.90
2022-08-05T12:58:50.631Z,2.05
2022-08-05T13:02:02.133Z,1.85
2022-08-05T13:03:48.881Z,1.90
2022-08-05T13:06:21.881Z,2.22
2022-08-05T13:08:52.931Z,1.67
2022-08-05T13:12:01.553Z,1.70
2022-08-05T13:14:35.897Z,1.70
2022-08-05T13:17:20.677Z,4.57
2022-08-05T13:20:10.163Z,1.63
2022-08-05T13:22:52.967Z,1.65
2022-08-05T13:25:52.486Z,4.57
2022-08-05T13:28:14.299Z,1.50
2022-08-05T13:30:44.587Z,1.98
2022-08-05T13:34:24.219Z,1.70
2022-08-05T13:36:09.634Z,1.70
2022-08-05T13:38:42.770Z,1.58
2022-08-05T13:41:13.731Z,2.83
2022-08-05T13:43:54.474Z,1.70
2022-08-05T13:49:16.586Z,1.65
2022-08-05T13:51:47.226Z,1.42
2022-08-05T13:54:20.956Z,1.67
2022-08-05T13:56:55.072Z,1.70
2022-08-05T13:59:27.127Z,1.58
2022-08-05T14:02:01.926Z,1.60
2022-08-05T14:04:54.766Z,1.70
2022-08-05T14:08:01.010Z,2.00
2022-08-05T14:10:31.053Z,1.40
2022-08-05T14:13:01.557Z,1.55
2022-08-05T14:16:05.724Z,1.58
2022-08-05T14:18:23.337Z,1.60
2022-08-05T14:20:55.194Z,1.70
2022-08-05T14:23:28.080Z,1.60
2022-08-05T14:26:06.791Z,3.20
2022-08-05T14:28:37.067Z,1.70
2022-08-05T14:32:03.251Z,1.40
2022-08-05T14:34:13.489Z,1.63
2022-08-05T14:36:43.864Z,1.70
2022-08-05T14:42:19.684Z,1.20
2022-08-05T14:44:46.025Z,1.50
2022-08-05T14:47:16.412Z,1.70
2022-08-05T14:50:18.192Z,1.55
2022-08-05T14:52:56.974Z,1.83
2022-08-05T14:55:39.478Z,1.80
2022-08-05T14:58:13.698Z,1.73
2022-08-05T15:00:58.048Z,1.42
2022-08-05T15:03:34.029Z,1.65
2022-08-05T15:06:14.806Z,1.60
2022-08-05T15:08:59.777Z,2.10
2022-08-05T15:11:51.573Z,1.60
2022-08-05T15:14:34.562Z,1.60
2022-08-05T15:17:46.502Z,1.58
2022-08-05T15:20:00.213Z,2.13
2022-08-05T15:22:32.086Z,2.67
2022-08-05T15:25:11.814Z,4.25
2022-08-05T15:27:52.471Z,1.58
2022-08-05T15:30:26.438Z,1.73
2022-08-05T15:32:56.715Z,1.60
2022-08-05T15:35:28.885Z,1.52
2022-08-05T15:38:34.338Z,2.30
2022-08-05T15:41:04.110Z,1.65
2022-08-05T15:43:48.350Z,1.63
2022-08-05T15:46:21.165Z,2.20
2022-08-05T15:49:01.437Z,1.85
2022-08-05T15:52:13.240Z,1.45
2022-08-05T15:54:34.571Z,1.80
2022-08-05T15:57:07.371Z,1.67
2022-08-05T15:59:38.438Z,1.70
2022-08-05T16:02:09.558Z,1.73
2022-08-05T16:04:45.163Z,1.92
2022-08-05T16:07:16.305Z,1.73
2022-08-05T16:09:49.383Z,1.42
2022-08-05T16:12:21.687Z,1.73
2022-08-05T16:14:51.858Z,1.90
2022-08-05T16:17:23.359Z,1.60
2022-08-05T16:20:04.905Z,1.65
2022-08-05T16:22:36.609Z,1.75
2022-08-05T16:25:09.779Z,1.90
2022-08-05T16:28:00.236Z,1.73
2022-08-05T16:30:34.289Z,1.80
2022-08-05T16:33:06.488Z,1.80
2022-08-05T16:35:42.904Z,1.60
2022-08-05T16:38:24.095Z,1.50
2022-08-05T16:41:00.058Z,1.83
2022-08-05T16:43:33.209Z,1.63
2022-08-05T16:46:24.354Z,1.90
2022-08-05T16:48:55.657Z,1.63
2022-08-05T16:51:30.738Z,1.90
2022-08-05T16:54:17.144Z,2.00
2022-08-05T16:56:51.897Z,1.95
2022-08-05T16:59:22.644Z,1.70
2022-08-05T17:01:55.879Z,2.00
2022-08-05T17:04:28.325Z,1.80
2022-08-05T17:07:03.501Z,2.10
2022-08-05T17:09:57.794Z,2.05
2022-08-05T17:12:51.158Z,2.13
2022-08-05T17:15:20.202Z,1.83
2022-08-05T17:17:55.210Z,3.42
2022-08-05T17:22:57.707Z,1.83
2022-08-05T17:25:33.786Z,2.50
2022-08-05T17:28:04.955Z,1.65
2022-08-05T17:30:35.192Z,2.10
2022-08-05T17:33:21.561Z,2.00
2022-08-05T17:36:09.991Z,2.10
2022-08-05T17:38:43.571Z,1.80
2022-08-05T17:41:22.800Z,2.33
2022-08-05T17:44:04.456Z,2.15
2022-08-05T17:46:35.412Z,2.03
2022-08-05T17:49:05.716Z,2.25
2022-08-05T17:51:40.307Z,2.05
2022-08-05T17:54:10.981Z,2.28
2022-08-05T17:56:41.267Z,1.90
2022-08-05T17:59:14.995Z,2.30
2022-08-05T18:01:51.465Z,2.42
2022-08-05T18:04:27.799Z,2.47
2022-08-05T18:07:00.260Z,2.17
2022-08-05T18:09:58.805Z,2.72
2022-08-05T18:12:22.234Z,2.28
2022-08-05T18:14:54.508Z,2.08
2022-08-05T18:18:01.166Z,2.22
2022-08-05T18:20:15.583Z,2.60
2022-08-05T18:22:54.478Z,2.70
2022-08-05T18:25:32.795Z,2.92
2022-08-05T18:28:04.890Z,2.95
2022-08-05T18:30:35.981Z,2.80
2022-08-05T18:33:13.496Z,2.78
2022-08-05T18:36:00.553Z,2.83
2022-08-05T18:38:36.414Z,3.17
2022-08-05T18:41:56.736Z,3.00
2022-08-05T18:44:06.524Z,3.15
2022-08-05T18:46:38.283Z,2.58
2022-08-05T18:49:30.746Z,2.42
2022-08-05T18:52:33.561Z,2.47
2022-08-05T18:55:10.706Z,2.92
2022-08-05T18:57:43.360Z,3.20
2022-08-05T19:00:28.477Z,3.58
2022-08-05T19:03:03.688Z,3.05
2022-08-05T19:06:11.364Z,2.70
2022-08-05T19:08:30.458Z,4.57
2022-08-05T19:11:04.901Z,10.82
2022-08-05T19:13:36.723Z,5.20
2022-08-05T19:16:25.197Z,8.63
2022-08-05T19:18:59.405Z,4.07
2022-08-05T19:21:34.565Z,3.67
2022-08-05T19:24:12.589Z,3.50
2022-08-05T19:26:54.314Z,8.85
2022-08-05T19:29:36.451Z,4.63
2022-08-05T19:32:11.425Z,5.50
2022-08-05T19:34:42.176Z,13.93
2022-08-05T19:37:30.002Z,3.05
2022-08-05T19:40:17.204Z,7.47
2022-08-05T19:43:00.790Z,8.43
2022-08-05T19:45:36.900Z,17.58
2022-08-05T19:48:07.331Z,2.78
2022-08-05T19:50:45.132Z,8.98
2022-08-05T19:53:15.325Z,2.80
2022-08-05T19:56:13.999Z,5.35
2022-08-05T19:58:53.376Z,47.60
2022-08-05T20:01:28.189Z,12.77
2022-08-05T20:03:59.263Z,31.67
2022-08-05T20:06:29.657Z,28.27
2022-08-05T20:09:04.762Z,154.50
2022-08-05T20:11:48.260Z,124.72
2022-08-05T20:14:27.088Z,114.10
2022-08-05T20:16:59.313Z,176.85
2022-08-05T20:19:36.116Z,272.38
2022-08-05T20:22:06.704Z,299.70
2022-08-05T20:24:40.091Z,355.75
2022-08-05T20:27:11.278Z,323.80
2022-08-05T20:29:42.124Z,329.02
2022-08-05T20:32:28.055Z,328.02
2022-08-05T20:34:58.456Z,323.40
2022-08-05T20:38:06.836Z,309.38
2022-08-05T20:40:18.984Z,230.55
2022-08-05T20:42:49.137Z,218.68
2022-08-05T20:45:21.003Z,249.27
2022-08-05T20:47:51.293Z,323.13
2022-08-05T20:50:22.308Z,172.93
2022-08-05T20:52:52.810Z,154.80
2022-08-05T20:56:07.223Z,224.85
2022-08-05T20:58:15.356Z,243.10
2022-08-05T21:00:51.791Z,205.32
2022-08-05T21:03:27.167Z,151.73
2022-08-05T21:06:04.798Z,141.07
2022-08-05T21:08:55.191Z,167.48
2022-08-05T21:12:07.185Z,129.13
2022-08-05T21:14:15.753Z,122.85
2022-08-05T21:16:46.005Z,63.05
2022-08-05T21:19:16.339Z,91.55
2022-08-05T21:21:50.861Z,64.95
2022-08-05T21:24:21.472Z,19.70
2022-08-05T21:26:58.497Z,9.98
2022-08-05T21:29:32.024Z,2.90
2022-08-05T21:32:03.158Z,4.13
2022-08-05T21:34:35.680Z,3.47
2022-08-05T21:37:08.246Z,4.32
2022-08-05T21:39:40.318Z,3.58
2022-08-05T21:42:30.802Z,4.95
2022-08-05T21:45:02.124Z,5.60
2022-08-05T21:47:54.753Z,4.80
2022-08-05T21:50:22.757Z,4.78
2022-08-05T21:52:53.801Z,4.20
2022-08-05T21:55:43.047Z,3.67
2022-08-05T21:58:20.418Z,3.30
2022-08-05T22:01:01.402Z,3.45
2022-08-05T22:03:48.452Z,4.30
2022-08-05T22:06:22.367Z,3.90
2022-08-05T22:08:53.446Z,4.32
2022-08-05T22:11:34.468Z,4.18
2022-08-05T22:14:35.613Z,5.15
2022-08-05T22:16:56.931Z,5.35
2022-08-05T22:20:00.867Z,4.93
2022-08-05T22:22:28.202Z,4.07
2022-08-05T22:25:24.042Z,4.50
2022-08-05T22:28:12.098Z,3.42
2022-08-05T22:30:55.554Z,3.63
2022-08-05T22:33:56.824Z,3.30
2022-08-05T22:36:19.109Z,3.50
2022-08-05T22:38:54.211Z,3.65
2022-08-05T22:42:05.122Z,3.20
2022-08-05T22:44:14.646Z,3.58
2022-08-05T22:46:49.320Z,4.50
2022-08-05T22:50:18.244Z,2.95
2022-08-05T22:52:22.889Z,3.00
2022-08-05T22:55:04.460Z,4.32
2022-08-05T22:57:51.606Z,3.70
2022-08-05T23:00:23.490Z,4.47
2022-08-05T23:02:53.941Z,4.07
2022-08-05T23:05:24.406Z,4.32
2022-08-05T23:07:54.975Z,4.35
2022-08-05T23:10:25.790Z,3.70
2022-08-05T23:12:56.113Z,4.07
2022-08-05T23:15:29.788Z,5.15
2022-08-05T23:18:06.187Z,4.95
2022-08-05T23:20:43.233Z,5.38
2022-08-05T23:23:13.652Z,4.57
2022-08-05T23:25:53.250Z,5.47
2022-08-05T23:28:29.243Z,4.20
2022-08-05T23:31:16.411Z,4.20
2022-08-05T23:34:03.078Z,4.25
2022-08-05T23:36:38.426Z,4.03
2022-08-05T23:39:09.808Z,4.32
2022-08-05T23:41:48.431Z,3.60
2022-08-05T23:44:22.631Z,5.53
2022-08-05T23:49:35.856Z,3.45
2022-08-05T23:52:25.595Z,3.90
2022-08-05T23:54:58.269Z,3.80
2022-08-05T23:57:28.678Z,3.83
